Time;durP1;ratioP1;P1;durP2;ratioP2;P2;SDS_P1;SDS_P2;PMS_P1;PMS_P2;Temp;Humidity;BMP_temperature;BMP_pressure;BME280_temperature;BME280_humidity;BME280_pressure;Samples;Min_cycle;Max_cycle;Signal;HPM_P1;HPM_P2
2022/04/29 00:00:19;;;;;;;14.70;9.17;;;;;;;8.78;81.34;102040.84;677233;29;1543;-82
2022/04/29 00:00:42;;;;;;;14.97;9.67;;;;;;;8.76;82.17;102033.81;677134;29;1258;-82
2022/04/29 00:01:05;;;;;;;14.73;9.73;;;;;;;8.75;82.10;102043.38;671180;29;1320;-82
2022/04/29 00:01:26;;;;;;;14.43;9.55;;;;;;;8.71;82.39;102033.72;671667;29;4859;-82
2022/04/29 00:01:46;;;;;;;13.90;9.40;;;;;;;8.71;82.29;102038.94;675363;29;1393;-82
2022/04/29 00:02:08;;;;;;;15.00;9.53;;;;;;;8.69;82.28;102035.41;673890;29;1668;-82
2022/04/29 00:02:28;;;;;;;15.10;9.63;;;;;;;8.67;82.60;102037.09;673621;29;1826;-82
2022/04/29 00:02:51;;;;;;;14.30;9.02;;;;;;;8.72;83.06;102043.28;675579;29;1761;-82
2022/04/29 00:03:12;;;;;;;15.75;9.90;;;;;;;8.72;84.64;102040.69;674956;29;1470;-82
2022/04/29 00:03:33;;;;;;;15.65;10.05;;;;;;;8.73;85.35;102039.84;673335;29;1585;-82
2022/04/29 00:03:53;;;;;;;14.13;9.63;;;;;;;8.70;83.75;102045.00;675109;29;1655;-82
2022/04/29 00:04:14;;;;;;;14.10;9.13;;;;;;;8.71;84.26;102038.03;677261;28;4603;-81
2022/04/29 00:04:38;;;;;;;12.67;9.13;;;;;;;8.70;83.80;102037.16;677196;29;1604;-82
2022/04/29 00:04:58;;;;;;;15.73;10.35;;;;;;;8.69;84.04;102038.00;678307;28;1544;-81
2022/04/29 00:05:19;;;;;;;14.90;9.27;;;;;;;8.73;82.42;102046.78;679536;28;1381;-82
2022/04/29 00:05:43;;;;;;;12.65;9.48;;;;;;;8.73;83.63;102045.06;678812;28;1735;-82
2022/04/29 00:06:03;;;;;;;14.60;9.77;;;;;;;8.69;85.09;102041.50;676879;29;1153;-82
2022/04/29 00:06:25;;;;;;;15.57;9.80;;;;;;;8.68;85.59;102038.84;679625;28;1345;-82
2022/04/29 00:06:45;;;;;;;14.52;9.50;;;;;;;8.67;84.46;102043.19;679696;28;1546;-82
2022/04/29 00:07:07;;;;;;;13.93;9.57;;;;;;;8.67;84.61;102042.31;676786;28;4589;-82
2022/04/29 00:07:27;;;;;;;12.43;8.88;;;;;;;8.65;84.88;102044.88;672963;29;1848;-82
2022/04/29 00:07:47;;;;;;;13.20;8.90;;;;;;;8.64;84.41;102039.59;666987;29;1261;-82
2022/04/29 00:08:09;;;;;;;13.87;9.13;;;;;;;8.62;84.67;102039.56;666550;29;1534;-82
2022/04/29 00:08:29;;;;;;;14.25;9.48;;;;;;;8.60;85.13;102040.38;669864;29;1151;-81
2022/04/29 00:08:50;;;;;;;13.60;9.57;;;;;;;8.58;85.88;102040.34;671057;29;1199;-82
2022/04/29 00:09:10;;;;;;;12.50;9.77;;;;;;;8.56;87.32;102046.38;676515;29;1587;-82
2022/04/29 00:09:31;;;;;;;14.20;9.80;;;;;;;8.55;86.14;102053.28;680911;28;2520;-82
2022/04/29 00:09:51;;;;;;;14.67;9.60;;;;;;;8.57;85.90;102041.19;677823;29;1988;-82
2022/04/29 00:10:14;;;;;;;13.68;9.15;;;;;;;8.59;87.97;102044.72;677501;28;4332;-82
2022/04/29 00:10:35;;;;;;;14.48;9.48;;;;;;;8.58;89.49;102044.69;679162;28;1449;-82
2022/04/29 00:10:56;;;;;;;16.65;9.50;;;;;;;8.59;86.24;102043.84;677022;29;1678;-82
2022/04/29 00:11:18;;;;;;;13.82;9.27;;;;;;;8.61;87.20;102044.75;678753;29;1768;-82
2022/04/29 00:11:38;;;;;;;14.40;9.35;;;;;;;8.59;87.52;102047.31;678770;28;1563;-82
2022/04/29 00:12:02;;;;;;;15.50;9.80;;;;;;;8.57;89.67;102053.31;677962;28;1594;-82
2022/04/29 00:12:22;;;;;;;15.88;9.82;;;;;;;8.61;88.10;102047.34;676775;29;1587;-82
2022/04/29 00:12:46;;;;;;;15.57;9.77;;;;;;;8.58;89.03;102048.16;674043;29;1454;-82
2022/04/29 00:13:09;;;;;;;13.55;9.07;;;;;;;8.58;87.81;102047.28;674971;29;4498;-82
2022/04/29 00:13:29;;;;;;;13.27;8.85;;;;;;;8.56;87.72;102044.63;674683;29;1482;-82
2022/04/29 00:13:49;;;;;;;14.53;9.40;;;;;;;8.58;86.92;102049.88;676454;29;1707;-81
2022/04/29 00:14:10;;;;;;;14.90;9.45;;;;;;;8.56;86.57;102043.78;675988;29;1338;-82
2022/04/29 00:14:30;;;;;;;13.30;9.47;;;;;;;8.54;85.75;102048.03;676454;29;1243;-82
2022/04/29 00:14:51;;;;;;;13.63;9.52;;;;;;;8.54;85.91;102048.03;674048;29;1553;-82
2022/04/29 00:15:13;;;;;;;13.57;9.57;;;;;;;8.55;84.81;102044.59;671684;29;1264;-82
2022/04/29 00:15:33;;;;;;;14.40;9.60;;;;;;;8.56;85.63;102046.38;676209;29;1594;-82
2022/04/29 00:15:54;;;;;;;14.23;9.95;;;;;;;8.53;85.02;102044.56;678275;28;1603;-82
2022/04/29 00:16:14;;;;;;;14.65;9.60;;;;;;;8.52;85.41;102043.66;676600;29;4313;-82
2022/04/29 00:16:35;;;;;;;13.10;9.17;;;;;;;8.50;85.50;102042.75;674009;29;3691;-82
2022/04/29 00:16:56;;;;;;;13.65;9.27;;;;;;;8.52;85.38;102045.41;673823;29;1619;-82
2022/04/29 00:17:16;;;;;;;15.13;9.52;;;;;;;8.50;85.69;102044.47;671810;29;1548;-81
2022/04/29 00:17:37;;;;;;;14.80;9.77;;;;;;;8.51;85.67;102041.94;672419;29;1984;-82
2022/04/29 00:18:01;;;;;;;15.70;9.93;;;;;;;8.51;84.07;102046.25;671749;29;1308;-82
2022/04/29 00:18:21;;;;;;;16.80;9.82;;;;;;;8.51;83.77;102049.75;672523;29;1384;-81
2022/04/29 00:18:42;;;;;;;16.07;9.87;;;;;;;8.58;83.71;102044.69;672327;29;1532;-81
2022/04/29 00:19:02;;;;;;;15.87;9.87;;;;;;;8.58;84.55;102047.28;671299;29;1340;-82
2022/04/29 00:19:23;;;;;;;16.27;9.83;;;;;;;8.58;84.61;102047.28;668724;29;4274;-82
2022/04/29 00:19:45;;;;;;;15.27;9.88;;;;;;;8.57;84.71;102040.28;672546;29;1358;-82
2022/04/29 00:20:07;;;;;;;14.77;9.40;;;;;;;8.55;84.66;102042.00;673821;29;1807;-82
2022/04/29 00:20:28;;;;;;;16.38;9.80;;;;;;;8.51;84.89;102041.94;677303;29;1317;-82
2022/04/29 00:20:49;;;;;;;17.60;9.90;;;;;;;8.52;84.00;102043.66;679193;28;1334;-82
2022/04/29 00:21:09;;;;;;;14.48;9.15;;;;;;;8.56;85.41;102046.38;676933;29;1619;-81
2022/04/29 00:21:29;;;;;;;15.73;9.60;;;;;;;8.57;84.58;102046.41;677663;28;1682;-82
2022/04/29 00:21:50;;;;;;;13.73;9.60;;;;;;;8.57;84.22;102046.41;677837;28;1526;-82
2022/04/29 00:22:10;;;;;;;14.07;9.48;;;;;;;8.55;83.83;102042.88;675840;29;4381;-82
2022/04/29 00:22:31;;;;;;;15.00;9.13;;;;;;;8.57;84.29;102040.28;683597;28;1639;-81
2022/04/29 00:22:51;;;;;;;15.00;9.90;;;;;;;8.54;83.87;102043.69;681624;28;1478;-81
2022/04/29 00:23:12;;;;;;;14.60;9.90;;;;;;;8.52;83.88;102040.19;679013;29;1249;-81
2022/04/29 00:23:32;;;;;;;15.57;9.75;;;;;;;8.52;83.45;102042.78;676061;29;1487;-81
2022/04/29 00:23:52;;;;;;;15.23;9.80;;;;;;;8.50;84.35;102045.38;677910;29;1369;-82
2022/04/29 00:24:13;;;;;;;13.17;9.77;;;;;;;8.49;84.30;102046.19;681998;28;1793;-82
2022/04/29 00:24:33;;;;;;;13.60;9.47;;;;;;;8.48;84.43;102047.03;682399;28;1669;-82
2022/04/29 00:24:54;;;;;;;13.67;9.53;;;;;;;8.46;84.37;102043.53;680310;28;1151;-82
2022/04/29 00:25:14;;;;;;;13.77;9.35;;;;;;;8.45;84.96;102046.97;679334;28;4383;-82
2022/04/29 00:25:35;;;;;;;16.98;9.93;;;;;;;8.43;84.85;102038.22;679375;29;1345;-81
2022/04/29 00:25:56;;;;;;;14.73;9.70;;;;;;;8.43;84.07;102046.03;676561;29;1595;-81
2022/04/29 00:26:16;;;;;;;14.47;9.70;;;;;;;8.42;84.42;102045.94;674333;29;1454;-82
2022/04/29 00:26:37;;;;;;;13.93;9.50;;;;;;;8.42;84.45;102046.84;676617;29;1375;-81
2022/04/29 00:26:58;;;;;;;14.20;9.80;;;;;;;8.44;84.31;102045.16;679315;28;1350;-82
2022/04/29 00:27:18;;;;;;;14.63;9.85;;;;;;;8.44;83.81;102052.97;675916;29;1453;-82
2022/04/29 00:27:42;;;;;;;14.43;9.70;;;;;;;8.44;84.18;102041.69;674671;29;1506;-81
2022/04/29 00:28:04;;;;;;;14.73;9.70;;;;;;;8.42;85.37;102049.47;676477;29;1504;-82
2022/04/29 00:28:25;;;;;;;14.80;9.80;;;;;;;8.41;86.07;102045.09;673967;29;4840;-82
2022/04/29 00:28:46;;;;;;;14.52;9.93;;;;;;;8.38;86.32;102045.00;679377;28;1296;-82
2022/04/29 00:29:07;;;;;;;14.10;9.50;;;;;;;8.37;85.72;102058.00;678832;28;1918;-82
2022/04/29 00:29:27;;;;;;;13.73;9.43;;;;;;;8.38;85.59;102055.44;676882;29;1423;-82
2022/04/29 00:29:47;;;;;;;13.93;9.90;;;;;;;8.36;86.70;102054.50;675651;29;1410;-82
2022/04/29 00:30:10;;;;;;;13.63;9.80;;;;;;;8.34;87.21;102054.47;674304;29;1764;-82
2022/04/29 00:30:32;;;;;;;13.13;9.68;;;;;;;8.36;86.23;102049.28;676980;29;1329;-82
2022/04/29 00:30:53;;;;;;;14.65;9.63;;;;;;;8.36;88.11;102059.72;679542;28;1424;-82
2022/04/29 00:31:14;;;;;;;16.60;10.00;;;;;;;8.38;88.00;102058.03;676406;28;4506;-82
2022/04/29 00:31:35;;;;;;;15.50;10.02;;;;;;;8.41;88.07;102054.63;678593;29;1396;-82
2022/04/29 00:31:55;;;;;;;14.90;9.60;;;;;;;8.40;86.80;102058.94;677787;29;1592;-82
2022/04/29 00:32:15;;;;;;;14.70;9.47;;;;;;;8.40;86.38;102052.88;672065;29;1290;-82
2022/04/29 00:32:37;;;;;;;15.38;9.60;;;;;;;8.41;86.74;102062.47;673287;29;1172;-81
2022/04/29 00:32:58;;;;;;;14.45;9.60;;;;;;;8.40;86.43;102055.47;671211;29;1564;-82
2022/04/29 00:33:19;;;;;;;15.55;10.10;;;;;;;8.40;86.82;102064.16;669941;29;1631;-82
2022/04/29 00:33:40;;;;;;;15.57;9.67;;;;;;;8.39;86.11;102056.31;669074;29;1664;-81
2022/04/29 00:34:01;;;;;;;14.80;9.85;;;;;;;8.37;86.47;102053.66;672417;29;1510;-82
2022/04/29 00:34:21;;;;;;;15.18;9.90;;;;;;;8.34;86.90;102067.47;673228;29;4399;-82
2022/04/29 00:34:42;;;;;;;14.93;9.80;;;;;;;8.32;88.44;102065.66;679545;28;1440;-82
2022/04/29 00:35:03;;;;;;;15.35;10.20;;;;;;;8.31;89.23;102063.94;679059;28;1515;-82
2022/04/29 00:35:24;;;;;;;17.30;10.23;;;;;;;8.28;89.72;102063.81;679801;29;1553;-82
2022/04/29 00:35:44;;;;;;;15.57;9.98;;;;;;;8.27;88.67;102072.50;677180;29;1459;-82
2022/04/29 00:36:05;;;;;;;16.07;10.20;;;;;;;8.25;89.82;102059.44;677297;29;1846;-82
2022/04/29 00:36:25;;;;;;;12.65;9.52;;;;;;;8.24;89.94;102065.47;676892;29;1238;-82
2022/04/29 00:36:45;;;;;;;15.23;9.80;;;;;;;8.24;88.16;102056.78;676856;29;1601;-81
2022/04/29 00:37:06;;;;;;;15.32;9.70;;;;;;;8.25;89.28;102064.66;678534;28;4359;-82
2022/04/29 00:37:26;;;;;;;14.93;10.03;;;;;;;8.24;89.27;102061.97;675582;29;1359;-82
2022/04/29 00:37:52;;;;;;;14.75;9.77;;;;;;;8.25;90.30;102064.66;679428;29;1915;-82
2022/04/29 00:38:15;;;;;;;14.55;9.65;;;;;;;8.23;91.51;102060.25;678554;28;1508;-82
2022/04/29 00:38:35;;;;;;;16.20;10.32;;;;;;;8.22;90.63;102074.09;676451;29;1897;-82
2022/04/29 00:38:56;;;;;;;16.00;10.60;;;;;;;8.21;90.10;102061.91;675950;29;1418;-82
2022/04/29 00:39:20;;;;;;;17.90;10.07;;;;;;;8.18;90.53;102066.19;672159;29;1288;-82
2022/04/29 00:39:41;;;;;;;17.23;10.10;;;;;;;8.18;90.26;102063.59;673002;29;1588;-82
2022/04/29 00:40:01;;;;;;;17.20;10.17;;;;;;;8.15;89.97;102067.81;678897;29;1433;-82
2022/04/29 00:40:27;;;;;;;15.23;9.70;;;;;;;8.09;90.09;102071.16;678051;28;4289;-82
2022/04/29 00:40:49;;;;;;;13.45;9.25;;;;;;;8.08;88.69;102066.78;676283;29;1347;-82
2022/04/29 00:41:09;;;;;;;12.28;9.70;;;;;;;8.10;89.92;102065.09;675321;29;1573;-82
2022/04/29 00:41:30;;;;;;;14.07;10.00;;;;;;;8.14;89.28;102061.75;677711;29;1601;-82
2022/04/29 00:41:51;;;;;;;15.93;9.55;;;;;;;8.15;89.32;102063.50;679013;29;1648;-82
2022/04/29 00:42:12;;;;;;;14.07;9.35;;;;;;;8.13;88.60;102064.31;675633;29;1443;-83
2022/04/29 00:42:33;;;;;;;15.18;9.77;;;;;;;8.11;88.44;102061.66;672099;29;1730;-82
2022/04/29 00:42:54;;;;;;;17.07;10.27;;;;;;;8.10;88.52;102070.31;677506;28;1496;-82
2022/04/29 00:43:14;;;;;;;16.08;10.15;;;;;;;8.10;89.07;102065.09;676084;28;4494;-82
2022/04/29 00:43:34;;;;;;;15.10;10.33;;;;;;;8.09;88.17;102059.84;681404;28;1430;-80
2022/04/29 00:44:07;;;;;;;16.03;10.20;;;;;;;8.09;88.09;102063.34;680568;28;1229;-80
2022/04/29 00:44:28;;;;;;;17.95;10.40;;;;;;;8.07;88.72;102058.91;682336;28;1484;-80
2022/04/29 00:44:49;;;;;;;15.93;10.10;;;;;;;8.08;89.57;102064.16;677033;29;1867;-80
2022/04/29 00:45:09;;;;;;;16.63;10.48;;;;;;;8.03;89.99;102063.19;674688;29;1418;-80
2022/04/29 00:45:30;;;;;;;16.43;11.07;;;;;;;8.01;90.88;102064.84;678623;28;1451;-80
2022/04/29 00:45:51;;;;;;;17.33;10.57;;;;;;;7.99;90.36;102063.94;678562;29;1252;-80
2022/04/29 00:46:12;;;;;;;15.70;10.23;;;;;;;7.97;90.77;102057.78;678824;29;4347;-80
2022/04/29 00:46:37;;;;;;;14.63;9.95;;;;;;;7.98;92.12;102057.81;682050;28;1480;-80
2022/04/29 00:46:58;;;;;;;13.25;9.20;;;;;;;7.98;92.20;102064.75;675499;29;1245;-80
2022/04/29 00:47:20;;;;;;;15.57;9.83;;;;;;;7.98;91.55;102050.00;673321;29;1647;-80
2022/04/29 00:47:41;;;;;;;15.55;9.82;;;;;;;7.99;91.44;102056.13;678978;28;1347;-80
2022/04/29 00:48:02;;;;;;;13.52;9.45;;;;;;;8.00;90.92;102057.84;676949;29;1325;-79
2022/04/29 00:48:22;;;;;;;12.25;9.20;;;;;;;8.00;90.91;102057.84;675357;29;1289;-80
2022/04/29 00:48:42;;;;;;;14.67;9.97;;;;;;;8.01;90.76;102060.50;677624;29;1253;-80
2022/04/29 00:49:05;;;;;;;15.70;10.10;;;;;;;8.00;89.99;102063.97;674304;29;1164;-80
2022/04/29 00:49:25;;;;;;;15.60;9.43;;;;;;;8.03;88.40;102057.97;676977;29;5191;-79
2022/04/29 00:49:46;;;;;;;16.00;9.23;;;;;;;8.01;88.92;102060.50;677048;29;1246;-80
2022/04/29 00:50:08;;;;;;;14.70;10.13;;;;;;;8.01;90.17;102052.69;679653;28;1276;-82
2022/04/29 00:50:29;;;;;;;14.10;10.25;;;;;;;7.97;90.23;102057.78;679478;29;1308;-82
2022/04/29 00:50:50;;;;;;;16.65;10.40;;;;;;;7.92;91.33;102060.25;679154;29;1428;-82
2022/04/29 00:51:10;;;;;;;15.43;9.67;;;;;;;7.92;92.17;102052.44;676561;29;1720;-82
2022/04/29 00:51:31;;;;;;;15.18;9.95;;;;;;;7.88;92.57;102054.91;678529;29;1306;-83
2022/04/29 00:51:51;;;;;;;15.07;10.32;;;;;;;7.87;92.29;102050.56;677878;29;1334;-83
2022/04/29 00:52:18;;;;;;;15.37;10.00;;;;;;;7.82;93.40;102053.91;674920;29;4338;-82
2022/04/29 00:52:42;;;;;;;14.70;10.20;;;;;;;7.80;93.27;102059.91;676441;29;1622;-83
2022/04/29 00:53:03;;;;;;;13.63;9.90;;;;;;;7.82;91.77;102053.00;676036;29;2127;-82
2022/04/29 00:53:26;;;;;;;13.52;9.32;;;;;;;7.83;92.30;102060.84;681986;28;1538;-82
2022/04/29 00:53:48;;;;;;;15.13;10.18;;;;;;;7.88;90.60;102052.28;678970;28;1311;-82
2022/04/29 00:54:12;;;;;;;14.77;9.75;;;;;;;7.86;89.93;102044.44;678757;29;1725;-82
2022/04/29 00:54:36;;;;;;;15.45;9.55;;;;;;;7.84;90.35;102046.13;677554;29;1753;-82
2022/04/29 00:55:01;;;;;;;15.23;9.30;;;;;;;7.84;90.71;102043.53;671443;29;1333;-83
2022/04/29 00:55:22;;;;;;;13.82;9.90;;;;;;;7.80;91.32;102050.38;672643;29;4347;-83
2022/04/29 00:55:45;;;;;;;15.27;9.93;;;;;;;7.75;93.60;102045.88;680009;28;1324;-82
2022/04/29 00:56:07;;;;;;;14.93;9.50;;;;;;;7.74;92.26;102054.50;681970;28;1426;-82
2022/04/29 00:56:31;;;;;;;15.74;9.78;;;;;;;7.74;92.10;102041.50;675217;29;1923;-83
2022/04/29 00:56:52;;;;;;;14.07;9.57;;;;;;;7.76;91.57;102050.25;677253;29;991;-82
2022/04/29 00:57:26;;;;;;;16.35;10.23;;;;;;;7.72;92.46;102045.78;671601;29;1256;-82
2022/04/29 00:58:11;;;;;;;18.73;10.23;;;;;;;7.73;92.52;102048.44;674273;29;1942;-83
2022/04/29 00:58:42;;;;;;;15.15;9.90;;;;;;;7.77;92.03;102039.88;680916;28;5319;-82
2022/04/29 00:59:15;;;;;;;14.48;9.48;;;;;;;7.78;91.61;102040.75;680321;28;1739;-83
2022/04/29 00:59:45;;;;;;;13.85;9.35;;;;;;;7.76;91.79;102043.31;678600;29;1630;-82
2022/04/29 01:00:08;;;;;;;14.38;9.55;;;;;;;7.72;92.29;102045.78;673667;29;1624;-82
2022/04/29 01:00:29;;;;;;;15.25;9.73;;;;;;;7.68;93.64;102039.59;678465;29;1374;-83
2022/04/29 01:00:49;;;;;;;14.05;9.35;;;;;;;7.67;92.71;102033.50;677195;29;1589;-82
2022/04/29 01:01:13;;;;;;;13.60;9.57;;;;;;;7.70;92.50;102037.94;675655;29;4351;-82
2022/04/29 01:01:34;;;;;;;14.23;9.45;;;;;;;7.76;91.90;102035.50;677013;29;1478;-82
2022/04/29 01:01:57;;;;;;;13.90;10.02;;;;;;;7.74;91.18;102039.78;674938;29;1764;-83
2022/04/29 01:02:17;;;;;;;13.57;9.55;;;;;;;7.75;90.43;102038.94;673250;29;1289;-82
2022/04/29 01:02:41;;;;;;;14.43;9.38;;;;;;;7.78;90.94;102040.75;677137;29;1497;-82
2022/04/29 01:03:03;;;;;;;13.65;9.52;;;;;;;7.72;94.04;102041.44;677162;29;1557;-80
2022/04/29 01:03:27;;;;;;;15.48;9.98;;;;;;;7.72;93.82;102036.25;672169;29;1552;-80
2022/04/29 01:03:49;;;;;;;15.60;10.13;;;;;;;7.70;93.02;102042.22;670544;29;1840;-80
2022/04/29 01:04:12;;;;;;;14.45;9.73;;;;;;;7.67;91.98;102032.66;674396;29;4394;-80
2022/04/29 01:04:40;;;;;;;14.80;9.60;;;;;;;7.63;92.19;102036.88;672994;29;1715;-80
2022/04/29 01:05:09;;;;;;;14.85;10.13;;;;;;;7.61;91.79;102037.66;673729;29;1509;-82
2022/04/29 01:05:33;;;;;;;15.45;9.55;;;;;;;7.62;91.25;102047.25;676040;29;1487;-82
2022/04/29 01:05:53;;;;;;;14.25;9.40;;;;;;;7.64;90.98;102032.53;676500;29;1624;-83
2022/04/29 01:06:14;;;;;;;15.55;10.02;;;;;;;7.60;92.12;102035.88;677292;29;1672;-83
2022/04/29 01:06:34;;;;;;;14.70;10.00;;;;;;;7.53;93.47;102037.41;676494;29;1304;-82
2022/04/29 01:06:56;;;;;;;13.93;9.53;;;;;;;7.47;94.64;102030.31;678664;29;1671;-83
2022/04/29 01:07:16;;;;;;;15.02;9.27;;;;;;;7.52;93.32;102037.38;678564;28;4282;-82
2022/04/29 01:07:38;;;;;;;15.45;9.80;;;;;;;7.60;92.39;102030.69;675769;29;1660;-83
2022/04/29 01:07:59;;;;;;;15.08;10.02;;;;;;;7.64;91.19;102033.44;679842;28;1416;-83
2022/04/29 01:08:19;;;;;;;13.50;9.90;;;;;;;7.70;91.26;102040.53;678008;29;1298;-82
2022/04/29 01:08:40;;;;;;;15.75;9.73;;;;;;;7.65;94.53;102027.38;677573;29;1563;-83
2022/04/29 01:09:00;;;;;;;14.30;9.55;;;;;;;7.62;93.92;102037.69;676403;29;1297;-83
2022/04/29 01:09:22;;;;;;;14.90;10.07;;;;;;;7.60;93.71;102030.69;677035;29;1374;-82
2022/04/29 01:09:42;;;;;;;16.50;10.23;;;;;;;7.62;91.68;102024.69;673657;29;1496;-82
2022/04/29 01:10:05;;;;;;;14.80;9.43;;;;;;;7.69;91.31;102033.56;671283;29;1659;-83
2022/04/29 01:10:25;;;;;;;13.48;9.30;;;;;;;7.68;91.85;102029.19;674633;29;4956;-83
2022/04/29 01:10:47;;;;;;;14.47;9.50;;;;;;;7.73;90.01;102027.59;670831;29;1549;-83
2022/04/29 01:11:08;;;;;;;14.52;9.60;;;;;;;7.72;91.54;102031.03;674064;29;1583;-83
2022/04/29 01:11:28;;;;;;;15.00;10.10;;;;;;;7.64;93.49;102027.31;676071;29;1536;-82
2022/04/29 01:11:50;;;;;;;16.48;9.68;;;;;;;7.56;93.19;102027.13;677749;29;1278;-82
2022/04/29 01:12:11;;;;;;;16.13;9.98;;;;;;;7.50;94.47;102022.63;677821;29;1509;-82
2022/04/29 01:12:34;;;;;;;13.98;9.93;;;;;;;7.48;95.05;102026.88;677493;29;1319;-83
2022/04/29 01:12:57;;;;;;;14.95;9.70;;;;;;;7.50;94.12;102025.22;676428;29;3393;-82
2022/04/29 01:13:18;;;;;;;13.75;9.10;;;;;;;7.54;92.92;102025.31;677877;29;4253;-83
2022/04/29 01:13:38;;;;;;;13.75;9.50;;;;;;;7.52;92.36;102019.16;676846;29;1266;-83
2022/04/29 01:14:01;;;;;;;14.37;9.93;;;;;;;7.51;92.66;102026.09;676480;29;1337;-80
2022/04/29 01:14:22;;;;;;;14.20;9.40;;;;;;;7.49;92.51;102020.84;679019;29;1481;-80
2022/04/29 01:14:44;;;;;;;13.27;9.27;;;;;;;7.46;91.79;102018.16;674576;29;1475;-80
2022/04/29 01:15:08;;;;;;;12.40;9.63;;;;;;;7.48;91.88;102021.69;676393;29;1543;-80
2022/04/29 01:15:30;;;;;;;12.68;9.50;;;;;;;7.48;92.80;102021.69;675765;29;1457;-80
2022/04/29 01:15:54;;;;;;;14.98;9.57;;;;;;;7.43;93.57;102023.25;673385;29;1522;-83
2022/04/29 01:16:14;;;;;;;15.25;10.13;;;;;;;7.38;94.72;102022.25;675499;29;4326;-83
2022/04/29 01:16:35;;;;;;;15.00;9.82;;;;;;;7.37;93.74;102017.00;673944;29;1345;-82
2022/04/29 01:16:58;;;;;;;14.70;9.83;;;;;;;7.35;95.16;102014.31;669827;29;1768;-83
2022/04/29 01:17:18;;;;;;;15.90;10.77;;;;;;;7.28;95.50;102022.78;671095;29;1495;-82
2022/04/29 01:17:41;;;;;;;16.38;10.77;;;;;;;7.23;95.50;102019.19;676307;29;1922;-83
2022/04/29 01:18:08;;;;;;;15.05;9.70;;;;;;;7.25;93.96;102015.78;678078;29;1583;-83
2022/04/29 01:18:29;;;;;;;14.10;9.50;;;;;;;7.35;93.69;102014.31;676823;29;1451;-83
2022/04/29 01:18:52;;;;;;;14.85;9.40;;;;;;;7.42;93.50;102018.91;681021;28;1488;-83
2022/04/29 01:19:13;;;;;;;15.45;9.50;;;;;;;7.41;95.45;102018.88;672535;29;4283;-80
2022/04/29 01:19:33;;;;;;;13.80;10.37;;;;;;;7.34;94.51;102020.38;673510;29;1301;-80
2022/04/29 01:19:53;;;;;;;14.38;9.63;;;;;;;7.35;93.52;102016.94;676107;29;1358;-81
2022/04/29 01:20:17;;;;;;;14.00;9.03;;;;;;;7.42;92.57;102016.31;676572;29;1348;-82
2022/04/29 01:20:38;;;;;;;14.73;9.52;;;;;;;7.48;92.34;102016.47;679407;28;1579;-82
2022/04/29 01:21:06;;;;;;;13.80;9.00;;;;;;;7.52;91.38;102013.94;674955;29;1664;-82
2022/04/29 01:21:27;;;;;;;14.90;9.50;;;;;;;7.56;91.59;102011.50;674580;29;1666;-82
2022/04/29 01:21:50;;;;;;;14.27;9.50;;;;;;;7.60;92.92;102012.47;674375;29;1515;-81
2022/04/29 01:22:11;;;;;;;14.02;9.30;;;;;;;7.61;92.72;102015.09;676095;29;4298;-81
2022/04/29 01:22:32;;;;;;;13.30;9.32;;;;;;;7.66;91.83;102012.66;671305;29;2110;-82
2022/04/29 01:22:52;;;;;;;12.27;8.98;;;;;;;7.71;90.81;102012.78;670945;29;1204;-82
2022/04/29 01:23:13;;;;;;;14.23;8.98;;;;;;;7.79;90.43;102017.34;676123;29;1527;-81
2022/04/29 01:23:34;;;;;;;15.38;9.30;;;;;;;7.80;90.23;102013.03;673551;29;1412;-82
2022/04/29 01:23:54;;;;;;;13.60;9.10;;;;;;;7.83;88.89;102019.19;676896;29;1737;-82
2022/04/29 01:24:15;;;;;;;13.50;9.40;;;;;;;7.88;88.59;102013.25;674221;29;1359;-82
2022/04/29 01:24:35;;;;;;;13.80;8.97;;;;;;;7.88;88.21;102008.03;675204;29;1432;-82
2022/04/29 01:24:56;;;;;;;13.68;9.13;;;;;;;7.91;88.36;102005.53;675451;29;1328;-81
2022/04/29 01:25:17;;;;;;;11.65;8.75;;;;;;;7.91;89.03;102002.94;679332;28;4279;-82
2022/04/29 01:25:43;;;;;;;13.25;9.70;;;;;;;7.77;90.91;102018.19;677673;29;1304;-81
2022/04/29 01:26:04;;;;;;;14.73;9.90;;;;;;;7.68;91.56;102008.34;677378;29;1461;-82
2022/04/29 01:26:25;;;;;;;13.80;9.80;;;;;;;7.65;90.84;102006.53;674532;29;1669;-81
2022/04/29 01:26:46;;;;;;;14.13;9.80;;;;;;;7.60;90.80;102008.16;676307;29;1257;-81
2022/04/29 01:27:11;;;;;;;13.70;9.23;;;;;;;7.57;90.98;102009.78;673897;29;1150;-82
2022/04/29 01:27:32;;;;;;;15.23;9.40;;;;;;;7.55;91.29;102011.47;677894;29;1573;-81
2022/04/29 01:27:52;;;;;;;14.02;8.98;;;;;;;7.55;89.80;102011.47;678397;29;1740;-81
2022/04/29 01:28:17;;;;;;;14.30;9.60;;;;;;;7.52;90.28;102016.56;679527;28;4311;-81
2022/04/29 01:28:39;;;;;;;15.38;9.68;;;;;;;7.50;90.53;102012.22;678716;29;1486;-81
2022/04/29 01:29:01;;;;;;;13.97;9.33;;;;;;;7.47;91.02;102009.50;675954;29;1457;-81
2022/04/29 01:29:23;;;;;;;14.57;9.40;;;;;;;7.46;91.09;102012.97;671008;29;2001;-82
2022/04/29 01:29:45;;;;;;;13.18;9.50;;;;;;;7.43;90.63;102004.16;679421;28;1248;-81
2022/04/29 01:30:11;;;;;;;15.52;9.70;;;;;;;7.41;91.98;102013.66;679964;29;1676;-81
2022/04/29 01:30:32;;;;;;;14.30;10.13;;;;;;;7.42;92.30;102007.59;675878;29;1681;-81
2022/04/29 01:30:55;;;;;;;14.40;10.00;;;;;;;7.45;91.72;102007.72;674697;29;1175;-81
2022/04/29 01:31:15;;;;;;;12.88;8.82;;;;;;;7.48;91.40;102008.66;679096;28;4304;-81
2022/04/29 01:31:38;;;;;;;14.00;8.98;;;;;;;7.46;90.95;102004.25;680256;28;1333;-82
2022/04/29 01:31:58;;;;;;;13.90;8.90;;;;;;;7.48;91.37;102018.19;676567;29;1561;-82
2022/04/29 01:32:19;;;;;;;12.13;9.03;;;;;;;7.48;90.83;102010.41;680485;28;1179;-82
2022/04/29 01:32:40;;;;;;;13.52;9.73;;;;;;;7.44;93.03;102012.00;675087;29;1705;-81
2022/04/29 01:33:01;;;;;;;14.52;9.70;;;;;;;7.40;93.96;102017.09;676062;29;1580;-82
2022/04/29 01:33:24;;;;;;;13.55;9.82;;;;;;;7.34;94.90;102004.78;680336;29;1396;-81
2022/04/29 01:33:47;;;;;;;14.15;9.88;;;;;;;7.30;94.25;102013.31;681730;28;1455;-82
2022/04/29 01:34:10;;;;;;;13.55;9.43;;;;;;;7.30;94.15;102009.00;679030;28;4640;-81
2022/04/29 01:34:30;;;;;;;14.33;9.30;;;;;;;7.30;94.80;102008.13;682217;28;2453;-82
2022/04/29 01:34:51;;;;;;;13.27;9.52;;;;;;;7.30;94.90;102006.41;681809;28;2151;-82
2022/04/29 01:35:13;;;;;;;13.40;9.80;;;;;;;7.33;94.42;102010.81;674590;29;1345;-81
2022/04/29 01:35:34;;;;;;;14.30;9.55;;;;;;;7.29;95.64;102009.81;674592;29;1293;-82
2022/04/29 01:35:55;;;;;;;15.20;9.70;;;;;;;7.22;96.78;102007.00;674640;29;1089;-81
2022/04/29 01:36:16;;;;;;;15.00;9.82;;;;;;;7.23;96.41;102013.97;676462;29;1519;-81
2022/04/29 01:36:36;;;;;;;14.52;9.90;;;;;;;7.24;95.85;102010.53;677175;29;1401;-81
2022/04/29 01:36:57;;;;;;;14.30;9.65;;;;;;;7.24;95.87;102011.44;676344;29;1227;-82
2022/04/29 01:37:18;;;;;;;15.40;9.40;;;;;;;7.25;96.30;102009.69;671418;29;4404;-82
2022/04/29 01:37:39;;;;;;;14.57;9.20;;;;;;;7.26;96.47;102009.75;677702;29;1914;-81
2022/04/29 01:37:59;;;;;;;14.80;9.38;;;;;;;7.22;96.27;102013.09;677738;29;1358;-81
2022/04/29 01:38:20;;;;;;;14.87;9.40;;;;;;;7.25;94.91;102009.69;681897;28;1312;-82
2022/04/29 01:38:41;;;;;;;12.82;8.93;;;;;;;7.28;95.37;102010.69;680076;28;1541;-81
2022/04/29 01:39:02;;;;;;;14.50;9.40;;;;;;;7.27;95.93;102008.00;679479;29;4730;-82
2022/04/29 01:39:22;;;;;;;15.00;9.40;;;;;;;7.26;95.80;102008.88;674354;29;1770;-82
2022/04/29 01:39:43;;;;;;;13.70;9.25;;;;;;;7.35;94.77;102009.13;677810;29;1301;-81
2022/04/29 01:40:05;;;;;;;11.97;9.30;;;;;;;7.42;93.33;102003.28;676735;29;1558;-81
2022/04/29 01:40:25;;;;;;;11.82;9.00;;;;;;;7.47;93.29;102017.31;683322;28;4798;-81
2022/04/29 01:40:46;;;;;;;13.55;9.70;;;;;;;7.45;94.56;102003.38;678925;29;1550;-81
2022/04/29 01:41:10;;;;;;;14.95;9.90;;;;;;;7.45;94.09;102007.72;678384;29;1400;-82
2022/04/29 01:41:34;;;;;;;13.85;9.38;;;;;;;7.40;95.68;102001.47;673759;29;1544;-81
2022/04/29 01:41:54;;;;;;;14.50;9.35;;;;;;;7.34;95.66;102002.19;673875;29;1144;-82
2022/04/29 01:42:15;;;;;;;14.40;9.70;;;;;;;7.36;95.59;102003.09;674607;29;1592;-81
2022/04/29 01:42:36;;;;;;;13.32;9.75;;;;;;;7.36;95.27;102000.50;676932;29;1228;-82
2022/04/29 01:42:57;;;;;;;14.02;9.10;;;;;;;7.36;95.17;101999.63;674172;29;1387;-81
2022/04/29 01:43:17;;;;;;;14.87;8.97;;;;;;;7.33;94.49;102003.88;674226;29;4312;-81
2022/04/29 01:43:39;;;;;;;14.23;9.50;;;;;;;7.27;95.17;102002.81;676609;29;1513;-81